Zandhoven, Belgium
Current Conditions -  °F | °C
As of 5:20 PM on Saturday 20 Dec 2014 (Local Time) from EBAW Reporting Station
Broken Clouds Broken Clouds  
Wind Chill:   Ceiling: 2700
Heat Index:   Visibility: 6mi
Dew Point:   Wind: 17mph
Humidity: 76%   Direction: 280°W
Pressure: 30.24"   Gusts: NA
Location:  51.21°N, 4.66°E
Report Text: EBAW 201620Z 28015KT 9999 BKN027 08/04 Q1024 NOSIG
Loading
Personal Weather Stations






























Interactive Weather Map New forecast layout! Learn more

10-Day Weather Forecast

Advertisements
Track Severe Weather on mobile